Ana Sayfa
METAR-TAF:

METAR-TAF

Havaalanları :

Adıyaman Havalimanı

Adıyaman, Türkiye

Enlem: 37-43-54N, Boylam: 38-28-08E, yükseklik: 675 m

Güncel hava durumu gözlemi

Rapor saat 11:50 UTC de 42 dakika önce yapıldı.
Rüzgar değişken yönden 4 kt
Sıcaklık 18°C
Nem 37%
Basınç 1025 hPa
Görüş mesafesi 10 km veya daha fazla
4000 ft yükseklikte az bulutlu
10000 ft yükseklikte parçalı çok bulutlu

METAR: LTCP 241150Z VRB04KT 9999 FEW040 BKN100 18/03 Q1025

Saat: 15:32 (12:32 UTC)

Tahmin

Rapor saat 10:40 UTC de 1 saat ve 52 dakika önce yapıldı.
Ayın 24'si saat 12 UTC'den ayın 24'si saat 21 UTC'ye kadar geçerli Tahmin
Rüzgar değişken yönden 2 kt
Görüş mesafesi 10 km veya daha fazla
4000 ft yükseklikte az bulutlu
10000 ft yükseklikte parçalı çok bulutlu
Dönüşüyor
ayın 24'si saat 17 UTC'den ayın 24'si saat 18 UTC'ye kadar
Görüş mesafesi 10 km veya daha fazla
1500 m altında bulut yok ve kümülonimbus yok

TAF: LTCP 241040Z 2412/2421 VRB02KT 9999 FEW040 BKN100 BECMG 2417/2418 CAVOK

4.000'den fazla havaalanı için hava durumu gözlemleri ve tahminleri (METAR ve TAF raporları).

Kullanılabilir istasyonlar harita üzerinde sarı ve kırmızı noktalarla gösterilir.

İstasyonun adını görmek için fareyi noktanın üzerinde gezdirin.

Sonrasında hava gözlem ve tahminlerini görmek için tıklayın.

Haritayı değiştirmek için: yaklaştırmak için siyah artı işaretli yeşil düğmeye ve uzaklaştırmak için de eksi işaretli düğmeye hızla tıklayın; bitişik haritalar için yeşil okları kullanın.


METAR-TAF: